Time;durP1;ratioP1;P1;durP2;ratioP2;P2;SDS_P1;SDS_P2;PMS_P1;PMS_P2;Temp;Humidity;BMP_temperature;BMP_pressure;BME280_temperature;BME280_humidity;BME280_pressure;Samples;Min_cycle;Max_cycle;Signal;HPM_P1;HPM_P2
2023/04/05 00:00:29;;;;;;;0.70;0.50;;;1.30;99.90;;;;;;5051322;28;20098;-72
2023/04/05 00:02:58;;;;;;;4.95;0.98;;;1.20;99.90;;;;;;5033846;28;20548;-72
2023/04/05 00:05:29;;;;;;;2.70;1.33;;;1.10;99.90;;;;;;5051071;28;20056;-72
2023/04/05 00:08:07;;;;;;;0.38;0.38;;;1.00;99.90;;;;;;5051331;28;20041;-72
2023/04/05 00:10:33;;;;;;;3.47;1.20;;;1.00;99.90;;;;;;5051791;28;20536;-72
2023/04/05 00:12:58;;;;;;;1.55;0.88;;;1.00;99.90;;;;;;5050529;28;20120;-72
2023/04/05 00:15:26;;;;;;;1.85;1.33;;;1.00;99.90;;;;;;5051998;28;20044;-72
2023/04/05 00:17:53;;;;;;;0.90;0.52;;;1.00;99.90;;;;;;5050159;28;20053;-72
2023/04/05 00:20:19;;;;;;;2.15;0.93;;;0.90;99.90;;;;;;5051961;28;20041;-72
2023/04/05 00:22:45;;;;;;;0.50;0.40;;;0.90;99.90;;;;;;5051974;28;20037;-72
2023/04/05 00:25:12;;;;;;;0.73;0.73;;;0.90;99.90;;;;;;5049870;28;20095;-72
2023/04/05 00:27:38;;;;;;;0.43;0.43;;;0.90;99.90;;;;;;5051853;28;20057;-72
2023/04/05 00:30:05;;;;;;;1.05;0.95;;;0.80;99.90;;;;;;5051895;28;20453;-72
2023/04/05 00:32:31;;;;;;;1.13;0.73;;;0.80;99.90;;;;;;5066412;28;20049;-72
2023/04/05 00:34:57;;;;;;;0.68;0.52;;;0.80;99.90;;;;;;5050349;28;20049;-72
2023/04/05 00:37:23;;;;;;;0.45;0.40;;;0.80;99.90;;;;;;5050434;28;20060;-72
2023/04/05 00:39:48;;;;;;;1.40;0.57;;;0.80;99.90;;;;;;5049832;28;20037;-72
2023/04/05 00:42:14;;;;;;;0.93;0.50;;;0.80;99.90;;;;;;5033783;28;20036;-71
2023/04/05 00:44:40;;;;;;;1.58;0.98;;;0.80;99.90;;;;;;5051008;28;20120;-72
2023/04/05 00:47:06;;;;;;;0.60;0.60;;;0.70;99.90;;;;;;5051440;28;20516;-72
2023/04/05 00:49:34;;;;;;;1.25;0.73;;;0.80;99.90;;;;;;5051656;28;20048;-72
2023/04/05 00:52:00;;;;;;;2.15;0.85;;;0.70;99.90;;;;;;5050989;28;20045;-72
2023/04/05 00:54:28;;;;;;;0.45;0.45;;;0.80;99.90;;;;;;5051278;28;20044;-72
2023/04/05 00:56:58;;;;;;;0.50;0.50;;;0.80;99.90;;;;;;5051425;28;20118;-71
2023/04/05 00:59:24;;;;;;;;;;;0.80;99.90;;;;;;5050146;28;20045;-71
2023/04/05 01:01:58;;;;;;;0.85;0.68;;;0.70;99.90;;;;;;5049853;28;19920;-72
2023/04/05 01:04:26;;;;;;;0.40;0.38;;;0.70;99.90;;;;;;5050225;28;20413;-72
2023/04/05 01:07:49;;;;;;;0.75;0.70;;;0.70;99.90;;;;;;5049237;28;20080;-71
2023/04/05 01:10:17;;;;;;;3.13;1.08;;;0.70;99.90;;;;;;5008964;28;20076;-71
2023/04/05 01:12:43;;;;;;;1.05;0.77;;;0.60;99.90;;;;;;5008402;28;20384;-72
2023/04/05 01:15:10;;;;;;;1.42;0.98;;;0.50;99.90;;;;;;5025250;28;20179;-72
2023/04/05 01:17:37;;;;;;;1.90;0.90;;;0.40;99.90;;;;;;5008915;28;20052;-72
2023/04/05 01:20:12;;;;;;;0.20;0.20;;;0.40;99.90;;;;;;5008301;28;20479;-72
2023/04/05 01:23:13;;;;;;;0.60;0.57;;;0.40;99.90;;;;;;5008825;28;20509;-72
2023/04/05 01:25:55;;;;;;;0.40;0.40;;;0.40;99.90;;;;;;4991417;28;20603;-72
2023/04/05 01:28:42;;;;;;;0.85;0.52;;;0.40;99.90;;;;;;4991991;28;20042;-72
2023/04/05 01:31:24;;;;;;;1.20;0.70;;;0.40;99.90;;;;;;4992520;28;20069;-71
2023/04/05 01:33:59;;;;;;;1.40;0.90;;;0.40;99.90;;;;;;5024685;28;20058;-71
2023/04/05 01:36:37;;;;;;;1.15;0.77;;;0.40;99.90;;;;;;5025031;28;20048;-72
2023/04/05 01:39:05;;;;;;;0.63;0.57;;;0.30;99.90;;;;;;5008669;28;20411;-71
2023/04/05 01:41:31;;;;;;;1.08;0.75;;;0.30;99.90;;;;;;5037508;28;20049;-71
2023/04/05 01:43:57;;;;;;;1.75;0.50;;;0.20;99.90;;;;;;5049359;28;20045;-72
2023/04/05 01:46:23;;;;;;;2.58;0.80;;;0.20;99.90;;;;;;5049378;28;20045;-72
2023/04/05 01:48:48;;;;;;;0.75;0.70;;;0.30;99.90;;;;;;5050096;28;20033;-71
2023/04/05 01:51:14;;;;;;;0.43;0.43;;;0.20;99.90;;;;;;5049409;28;20080;-71
2023/04/05 01:53:40;;;;;;;0.60;0.60;;;0.30;99.90;;;;;;5032807;28;20481;-72
2023/04/05 01:56:06;;;;;;;3.83;1.08;;;0.30;99.90;;;;;;5048648;28;20478;-72
2023/04/05 01:58:31;;;;;;;4.93;1.08;;;0.30;99.90;;;;;;5049180;28;20048;-72
2023/04/05 02:00:57;;;;;;;0.60;0.60;;;0.30;99.90;;;;;;5049279;28;20163;-71
2023/04/05 02:03:23;;;;;;;0.75;0.45;;;0.20;99.90;;;;;;5048637;28;20043;-72
2023/04/05 02:05:50;;;;;;;2.03;0.60;;;0.20;99.90;;;;;;5049102;28;20532;-72
2023/04/05 02:08:17;;;;;;;0.98;0.63;;;0.20;99.90;;;;;;5050675;28;20052;-71
2023/04/05 02:10:43;;;;;;;0.43;0.40;;;0.10;99.90;;;;;;5048430;28;20128;-71
2023/04/05 02:13:09;;;;;;;1.75;0.77;;;0.10;99.90;;;;;;5050385;28;20183;-71
2023/04/05 02:15:35;;;;;;;1.08;0.70;;;0.10;99.90;;;;;;5049787;28;20037;-71
2023/04/05 02:18:03;;;;;;;2.83;1.17;;;0.10;99.90;;;;;;5050382;28;20060;-72
2023/04/05 02:20:29;;;;;;;0.30;0.30;;;0.10;99.90;;;;;;5049000;28;20036;-72
2023/04/05 02:22:57;;;;;;;0.77;0.52;;;0.00;99.90;;;;;;5049879;28;20032;-71
2023/04/05 02:25:23;;;;;;;0.93;0.80;;;0.00;99.90;;;;;;5048927;28;20057;-71
2023/04/05 02:27:49;;;;;;;1.70;0.60;;;0.00;99.90;;;;;;5050424;28;20351;-71
2023/04/05 02:30:15;;;;;;;1.25;0.77;;;-0.10;99.90;;;;;;5031760;28;20461;-71
2023/04/05 02:32:44;;;;;;;0.70;0.63;;;-0.20;99.90;;;;;;5049043;28;20111;-72
2023/04/05 02:35:10;;;;;;;0.95;0.73;;;-0.20;99.90;;;;;;5048855;28;20063;-71
2023/04/05 02:37:37;;;;;;;1.67;0.82;;;-0.30;99.90;;;;;;5051599;28;20068;-71
2023/04/05 02:40:08;;;;;;;1.65;0.63;;;-0.30;99.90;;;;;;5054003;28;20037;-72
2023/04/05 02:42:35;;;;;;;0.30;0.30;;;-0.30;99.90;;;;;;5052642;28;20124;-72
2023/04/05 02:45:01;;;;;;;1.55;1.15;;;-0.30;99.90;;;;;;5053328;28;20121;-72
2023/04/05 02:47:26;;;;;;;0.40;0.40;;;-0.30;99.90;;;;;;5052506;28;20060;-72
2023/04/05 02:49:52;;;;;;;1.20;0.75;;;-0.40;99.90;;;;;;5053898;28;20037;-72
2023/04/05 02:52:18;;;;;;;0.20;0.20;;;-0.40;99.90;;;;;;5053352;28;20458;-72
2023/04/05 02:54:45;;;;;;;0.30;0.30;;;-0.40;99.90;;;;;;5052272;28;20077;-72
2023/04/05 02:57:12;;;;;;;0.60;0.52;;;-0.40;99.90;;;;;;5052626;28;20037;-71
2023/04/05 02:59:38;;;;;;;0.30;0.30;;;-0.50;99.90;;;;;;5053067;28;20041;-72
2023/04/05 03:02:05;;;;;;;1.85;1.20;;;-0.50;99.90;;;;;;5053592;28;20394;-71
2023/04/05 03:04:33;;;;;;;1.48;0.75;;;-0.50;99.90;;;;;;5052421;28;20124;-72
2023/04/05 03:07:03;;;;;;;3.60;1.00;;;-0.50;99.90;;;;;;5052907;28;20045;-72
2023/04/05 03:09:32;;;;;;;0.45;0.45;;;-0.60;99.90;;;;;;5053556;28;20534;-71
2023/04/05 03:12:05;;;;;;;0.47;0.47;;;-0.60;99.90;;;;;;5052775;28;20182;-72
2023/04/05 03:14:30;;;;;;;0.55;0.55;;;-0.50;99.90;;;;;;5052159;28;20041;-72
2023/04/05 03:16:56;;;;;;;0.82;0.52;;;-0.50;99.90;;;;;;5052045;28;20481;-72
2023/04/05 03:19:24;;;;;;;0.65;0.65;;;-0.50;99.90;;;;;;5051422;28;20056;-72
2023/04/05 03:21:51;;;;;;;2.35;0.75;;;-0.50;99.90;;;;;;5051962;28;20401;-72
2023/04/05 03:24:17;;;;;;;0.88;0.70;;;-0.50;99.90;;;;;;5051868;28;20096;-72
2023/04/05 03:26:45;;;;;;;0.60;0.60;;;-0.50;99.90;;;;;;5051131;28;20072;-72
2023/04/05 03:29:10;;;;;;;0.52;0.50;;;-0.50;99.90;;;;;;5051761;28;20045;-72
2023/04/05 03:31:36;;;;;;;0.40;0.40;;;-0.50;99.90;;;;;;5051690;28;20114;-72
2023/04/05 03:34:02;;;;;;;1.13;0.40;;;-0.50;99.90;;;;;;5052220;28;20041;-72
2023/04/05 03:36:29;;;;;;;1.77;1.05;;;-0.50;99.90;;;;;;5053011;28;20087;-72
2023/04/05 03:38:55;;;;;;;0.75;0.75;;;-0.50;99.90;;;;;;5052988;28;20044;-72
2023/04/05 03:41:21;;;;;;;0.68;0.45;;;-0.50;99.90;;;;;;5052129;28;20048;-72
2023/04/05 03:43:48;;;;;;;0.57;0.57;;;-0.60;99.90;;;;;;5051365;28;20052;-72
2023/04/05 03:46:14;;;;;;;0.38;0.35;;;-0.60;99.90;;;;;;5052727;28;20684;-72
2023/04/05 03:48:40;;;;;;;2.10;0.63;;;-0.60;99.90;;;;;;5051279;28;20044;-72
2023/04/05 03:51:06;;;;;;;0.75;0.75;;;-0.60;99.90;;;;;;5051660;28;20488;-73
2023/04/05 03:53:32;;;;;;;0.98;0.85;;;-0.60;99.90;;;;;;5051262;28;20181;-72
2023/04/05 03:55:58;;;;;;;3.35;0.70;;;-0.70;99.90;;;;;;5051268;28;20075;-72
2023/04/05 03:58:27;;;;;;;0.40;0.28;;;-0.70;99.90;;;;;;5051209;28;20060;-72
2023/04/05 04:00:55;;;;;;;1.55;0.52;;;-0.70;99.90;;;;;;5034256;28;20149;-72
2023/04/05 04:03:20;;;;;;;0.63;0.63;;;-0.70;99.90;;;;;;5051093;28;20041;-72
2023/04/05 04:05:46;;;;;;;0.73;0.43;;;-0.70;99.90;;;;;;5051284;28;20052;-72
2023/04/05 04:08:12;;;;;;;0.50;0.45;;;-0.70;99.90;;;;;;5050498;28;20037;-73
2023/04/05 04:10:38;;;;;;;1.23;0.70;;;-0.70;99.90;;;;;;5052254;28;20047;-72
2023/04/05 04:13:04;;;;;;;2.30;1.17;;;-0.70;99.90;;;;;;5052104;28;20045;-72
2023/04/05 04:15:30;;;;;;;0.20;0.20;;;-0.70;99.90;;;;;;5051693;28;20044;-73
2023/04/05 04:17:56;;;;;;;0.73;0.63;;;-0.80;99.90;;;;;;5051030;28;20037;-72
2023/04/05 04:20:22;;;;;;;0.63;0.52;;;-0.80;99.90;;;;;;5050758;28;20041;-72
2023/04/05 04:22:48;;;;;;;0.43;0.43;;;-0.80;99.90;;;;;;5050437;28;20045;-72
2023/04/05 04:25:17;;;;;;;0.40;0.40;;;-0.80;99.90;;;;;;5051902;28;20899;-73
2023/04/05 04:27:43;;;;;;;1.08;0.75;;;-0.90;99.90;;;;;;5051846;28;20451;-72
2023/04/05 04:30:11;;;;;;;1.08;0.85;;;-0.90;99.90;;;;;;5051510;28;20561;-73
2023/04/05 04:32:57;;;;;;;0.93;0.85;;;-0.90;99.90;;;;;;5050492;28;20055;-72
2023/04/05 04:35:25;;;;;;;1.80;0.80;;;-0.90;99.90;;;;;;5050482;28;20493;-72
2023/04/05 04:37:58;;;;;;;0.90;0.52;;;-1.00;99.90;;;;;;5051033;28;20041;-73
2023/04/05 04:40:28;;;;;;;0.40;0.40;;;-1.00;99.90;;;;;;5033766;28;20094;-72
2023/04/05 04:42:57;;;;;;;1.20;0.73;;;-1.00;99.90;;;;;;5049626;28;20439;-73
2023/04/05 04:45:23;;;;;;;0.52;0.52;;;-1.00;99.90;;;;;;5050552;28;20084;-73
2023/04/05 04:47:52;;;;;;;0.30;0.30;;;-1.00;99.90;;;;;;5050466;28;20037;-72
2023/04/05 04:50:19;;;;;;;1.42;1.23;;;-1.10;99.90;;;;;;5049815;28;20044;-73
2023/04/05 04:52:45;;;;;;;7.03;0.93;;;-1.00;99.90;;;;;;5050098;28;20051;-73
2023/04/05 04:55:13;;;;;;;0.98;0.82;;;-1.00;99.90;;;;;;5049990;28;20056;-72
2023/04/05 04:57:40;;;;;;;0.40;0.40;;;-1.00;99.90;;;;;;5050862;28;20381;-72
2023/04/05 05:00:14;;;;;;;0.55;0.50;;;-1.00;99.90;;;;;;5050257;28;20041;-73
2023/04/05 05:02:41;;;;;;;0.88;0.77;;;-1.00;99.90;;;;;;5050187;28;20048;-72
2023/04/05 05:05:07;;;;;;;2.30;0.80;;;-1.00;99.90;;;;;;5049308;28;20041;-72
2023/04/05 05:07:35;;;;;;;0.60;0.60;;;-1.00;99.90;;;;;;5049842;28;20044;-72
2023/04/05 05:10:01;;;;;;;2.00;0.57;;;-1.00;99.90;;;;;;5051351;28;20190;-72
2023/04/05 05:12:27;;;;;;;2.40;0.98;;;-1.00;99.90;;;;;;5049264;28;20043;-72
2023/04/05 05:14:52;;;;;;;0.30;0.30;;;-1.00;99.90;;;;;;5051067;28;20119;-73
2023/04/05 05:17:18;;;;;;;1.08;0.82;;;-1.00;99.90;;;;;;5051033;28;20041;-72
2023/04/05 05:19:44;;;;;;;0.65;0.40;;;-1.00;99.90;;;;;;5049055;28;20056;-72
2023/04/05 05:22:10;;;;;;;1.00;0.73;;;-1.00;99.90;;;;;;5049667;28;20044;-73
2023/04/05 05:24:36;;;;;;;0.43;0.43;;;-1.00;99.90;;;;;;5050336;28;20056;-72
2023/04/05 05:27:02;;;;;;;0.75;0.63;;;-1.00;99.90;;;;;;5050863;28;20053;-73
2023/04/05 05:29:28;;;;;;;1.70;0.82;;;-1.00;99.90;;;;;;5049580;28;20045;-72
2023/04/05 05:31:54;;;;;;;3.05;1.05;;;-0.90;99.90;;;;;;5048982;28;20049;-72
2023/04/05 05:34:20;;;;;;;2.05;0.65;;;-0.90;99.90;;;;;;5050660;28;20049;-71
2023/04/05 05:36:46;;;;;;;0.95;0.90;;;-0.90;99.90;;;;;;5050945;28;20033;-73
2023/04/05 05:39:12;;;;;;;0.32;0.30;;;-0.80;99.90;;;;;;5049023;28;20041;-72
2023/04/05 05:41:38;;;;;;;0.30;0.30;;;-0.80;99.90;;;;;;5049687;28;20493;-73
2023/04/05 05:44:05;;;;;;;0.80;0.73;;;-0.80;99.90;;;;;;5049605;28;20043;-73
2023/04/05 05:46:31;;;;;;;0.55;0.38;;;-0.70;99.90;;;;;;5050036;28;20056;-72
2023/04/05 05:48:59;;;;;;;4.88;1.00;;;-0.70;99.90;;;;;;5050549;28;20048;-72
2023/04/05 05:51:25;;;;;;;1.88;0.55;;;-0.60;99.90;;;;;;5050600;28;20120;-73
2023/04/05 05:53:51;;;;;;;1.75;0.80;;;-0.60;99.90;;;;;;5049947;28;20041;-72
2023/04/05 05:56:17;;;;;;;0.60;0.60;;;-0.50;99.90;;;;;;5050540;28;20037;-72
2023/04/05 05:58:43;;;;;;;3.50;0.95;;;-0.50;99.90;;;;;;5050475;28;20033;-72
2023/04/05 06:01:10;;;;;;;1.25;0.55;;;-0.50;99.90;;;;;;5048425;28;20119;-71
2023/04/05 06:03:37;;;;;;;1.50;1.02;;;-0.40;99.90;;;;;;5048835;28;20888;-72
2023/04/05 06:06:04;;;;;;;0.52;0.52;;;-0.30;99.90;;;;;;5048501;28;20044;-72
2023/04/05 06:08:31;;;;;;;0.68;0.68;;;-0.20;99.90;;;;;;5047411;28;20524;-72
2023/04/05 06:10:57;;;;;;;0.93;0.75;;;-0.20;99.90;;;;;;5031705;28;20049;-71
2023/04/05 06:13:23;;;;;;;0.90;0.70;;;-0.10;99.90;;;;;;5052194;28;20128;-72
2023/04/05 06:15:49;;;;;;;1.30;0.77;;;0.10;99.90;;;;;;5034594;28;20540;-72
2023/04/05 06:18:15;;;;;;;1.08;0.98;;;0.40;99.90;;;;;;5053206;28;20029;-72
2023/04/05 06:20:43;;;;;;;0.40;0.40;;;0.60;99.90;;;;;;5051412;28;20067;-72
2023/04/05 06:23:12;;;;;;;0.98;0.75;;;1.00;99.90;;;;;;5051391;28;20102;-72
2023/04/05 06:25:38;;;;;;;2.55;1.02;;;1.40;99.90;;;;;;5052737;28;20084;-72
2023/04/05 06:28:05;;;;;;;0.95;0.88;;;1.80;99.90;;;;;;5052130;28;20041;-72
2023/04/05 06:30:32;;;;;;;1.55;0.60;;;2.40;99.90;;;;;;5053663;28;20044;-72
2023/04/05 06:32:58;;;;;;;2.25;0.80;;;2.90;99.90;;;;;;5053685;28;20045;-72
2023/04/05 06:35:25;;;;;;;2.38;1.58;;;3.30;99.90;;;;;;5051541;28;20041;-72
2023/04/05 06:37:52;;;;;;;3.92;1.33;;;3.70;99.90;;;;;;5052288;28;20043;-71
2023/04/05 06:40:18;;;;;;;3.78;1.83;;;4.10;99.90;;;;;;5052965;28;20128;-72
2023/04/05 06:42:44;;;;;;;3.03;1.40;;;4.40;99.90;;;;;;5053299;28;20040;-72
2023/04/05 06:45:11;;;;;;;2.45;1.23;;;4.60;99.90;;;;;;5052507;28;20047;-72
2023/04/05 06:47:38;;;;;;;2.35;1.08;;;4.80;99.90;;;;;;5052434;28;20045;-72
2023/04/05 06:50:06;;;;;;;3.58;1.75;;;5.10;99.90;;;;;;5051272;28;20045;-72
2023/04/05 06:52:33;;;;;;;3.28;1.80;;;5.40;99.90;;;;;;5053494;28;20041;-72
2023/04/05 06:55:00;;;;;;;4.78;1.90;;;5.60;99.90;;;;;;5052334;28;20045;-71
2023/04/05 06:57:26;;;;;;;4.63;1.77;;;5.80;99.90;;;;;;5053173;28;20086;-72
2023/04/05 06:59:53;;;;;;;3.70;1.38;;;5.90;99.90;;;;;;5035681;28;20041;-72
2023/04/05 07:02:20;;;;;;;4.25;2.58;;;6.00;99.90;;;;;;5053640;28;20120;-71
2023/04/05 07:04:46;;;;;;;4.10;1.90;;;6.10;99.90;;;;;;5053123;28;20441;-71
2023/04/05 07:07:12;;;;;;;4.15;2.15;;;6.00;99.90;;;;;;5053366;28;20040;-70
2023/04/05 07:09:38;;;;;;;5.07;2.63;;;5.70;99.90;;;;;;5052494;28;20076;-72
2023/04/05 07:12:06;;;;;;;3.88;2.22;;;5.60;99.90;;;;;;5051768;28;20099;-71
2023/04/05 07:14:34;;;;;;;4.63;2.95;;;5.60;99.90;;;;;;5052422;28;20452;-71
2023/04/05 07:17:02;;;;;;;4.53;2.20;;;5.60;99.90;;;;;;5050562;28;20044;-71
2023/04/05 07:19:30;;;;;;;4.45;2.47;;;5.70;99.90;;;;;;5051191;28;20045;-71
2023/04/05 07:21:58;;;;;;;3.80;1.58;;;5.70;99.90;;;;;;5050697;28;20033;-71
2023/04/05 07:24:24;;;;;;;3.90;2.40;;;5.70;99.90;;;;;;5050269;28;20520;-71
2023/04/05 07:26:53;;;;;;;5.10;2.10;;;5.60;99.90;;;;;;5035172;28;20254;-71
2023/04/05 07:29:19;;;;;;;4.97;2.40;;;5.60;99.90;;;;;;5053239;28;20075;-72
2023/04/05 07:31:47;;;;;;;3.42;1.98;;;5.60;99.90;;;;;;5051498;28;20080;-72
2023/04/05 07:34:14;;;;;;;2.42;1.55;;;5.60;99.90;;;;;;5052989;28;20079;-71
2023/04/05 07:36:42;;;;;;;5.88;2.28;;;5.60;99.90;;;;;;5051849;28;20033;-71
2023/04/05 07:39:09;;;;;;;5.15;1.98;;;5.70;99.90;;;;;;5052154;28;20078;-71
2023/04/05 07:41:37;;;;;;;3.10;1.98;;;5.90;99.90;;;;;;5051538;28;20037;-72
2023/04/05 07:44:05;;;;;;;2.92;1.88;;;6.00;99.90;;;;;;5051502;28;20040;-72
2023/04/05 07:46:33;;;;;;;4.32;2.22;;;6.10;99.90;;;;;;5052289;28;20043;-72
2023/04/05 07:49:00;;;;;;;5.40;2.20;;;6.30;99.90;;;;;;5051704;28;20045;-71
2023/04/05 07:51:28;;;;;;;4.93;2.47;;;6.60;99.90;;;;;;5052712;28;20056;-72
2023/04/05 07:53:54;;;;;;;4.00;2.42;;;6.80;99.90;;;;;;5052146;28;20520;-72
2023/04/05 07:56:22;;;;;;;4.88;2.67;;;6.90;99.90;;;;;;5052497;28;20072;-72
2023/04/05 07:58:50;;;;;;;3.47;1.95;;;7.10;99.90;;;;;;5052045;28;20091;-72
2023/04/05 08:01:18;;;;;;;4.93;2.80;;;7.20;99.90;;;;;;5051504;28;20076;-72
2023/04/05 08:03:46;;;;;;;5.40;2.53;;;7.30;99.90;;;;;;5034499;28;20037;-72
2023/04/05 08:06:13;;;;;;;4.25;2.17;;;7.70;99.90;;;;;;5050543;28;20097;-72
2023/04/05 08:08:40;;;;;;;4.15;2.53;;;7.90;99.90;;;;;;5052389;28;20037;-71
2023/04/05 08:11:08;;;;;;;4.18;2.28;;;8.00;99.90;;;;;;5084520;28;20079;-71
2023/04/05 08:13:35;;;;;;;3.78;1.92;;;8.20;99.90;;;;;;5050412;28;20053;-72
2023/04/05 08:16:01;;;;;;;8.65;2.63;;;8.60;99.90;;;;;;5050871;28;20056;-72
2023/04/05 08:18:27;;;;;;;5.50;2.67;;;9.00;99.90;;;;;;5052045;28;20037;-72
2023/04/05 08:20:57;;;;;;;3.92;1.80;;;9.30;99.90;;;;;;5051370;28;20055;-71
2023/04/05 08:23:25;;;;;;;5.32;2.85;;;9.40;99.90;;;;;;5050898;28;20110;-72
2023/04/05 08:25:52;;;;;;;3.35;1.70;;;9.70;99.90;;;;;;5051660;28;20139;-72
2023/04/05 08:28:21;;;;;;;4.72;2.00;;;10.10;99.90;;;;;;5049873;28;20044;-72
2023/04/05 08:30:49;;;;;;;3.50;2.13;;;10.40;99.90;;;;;;5050069;28;20082;-72
2023/04/05 08:33:16;;;;;;;3.28;2.20;;;10.60;99.90;;;;;;5050334;28;20083;-72
2023/04/05 08:35:44;;;;;;;3.03;2.08;;;11.00;99.90;;;;;;5050720;28;20045;-72
2023/04/05 08:38:11;;;;;;;5.22;2.55;;;11.50;99.90;;;;;;5051443;28;20064;-72
2023/04/05 08:40:41;;;;;;;4.07;2.08;;;11.60;99.90;;;;;;5050928;28;20044;-72
2023/04/05 08:43:40;;;;;;;3.72;1.67;;;11.70;99.90;;;;;;5050733;28;20067;-72
2023/04/05 08:46:11;;;;;;;6.53;2.13;;;11.80;99.90;;;;;;5050244;28;20132;-72
2023/04/05 08:48:38;;;;;;;3.33;1.70;;;12.10;99.90;;;;;;5049699;28;20076;-72
2023/04/05 08:51:04;;;;;;;3.25;1.75;;;12.30;99.90;;;;;;5050252;28;20508;-72
2023/04/05 08:53:34;;;;;;;4.43;2.35;;;12.60;99.90;;;;;;5083828;28;20080;-72
2023/04/05 08:56:04;;;;;;;3.08;1.80;;;12.90;99.90;;;;;;5033046;28;20044;-72
2023/04/05 08:58:33;;;;;;;4.95;1.88;;;13.20;99.90;;;;;;5033474;28;20103;-72
2023/04/05 09:01:01;;;;;;;3.28;1.60;;;13.60;99.90;;;;;;5051575;28;20102;-72
2023/04/05 09:03:40;;;;;;;3.97;1.48;;;14.10;99.90;;;;;;5048813;28;20044;-73
2023/04/05 09:06:10;;;;;;;3.30;1.60;;;14.50;99.90;;;;;;5049997;28;20045;-72
2023/04/05 09:08:37;;;;;;;;;;;14.60;99.90;;;;;;5049125;28;20049;-72
2023/04/05 09:11:05;;;;;;;6.38;1.45;;;14.70;99.90;;;;;;5049882;28;20000;-71
2023/04/05 09:13:31;;;;;;;3.33;1.90;;;14.70;99.90;;;;;;5051484;28;20045;-72
2023/04/05 09:15:58;;;;;;;2.47;1.20;;;14.70;99.90;;;;;;5049287;28;20474;-72
2023/04/05 09:18:26;;;;;;;3.50;1.27;;;14.70;99.60;;;;;;5051157;28;20041;-72
2023/04/05 09:21:05;;;;;;;4.15;1.60;;;14.80;99.50;;;;;;5049940;28;20430;-72
2023/04/05 09:23:34;;;;;;;2.72;1.13;;;14.90;96.60;;;;;;5049036;28;20037;-73
2023/04/05 09:26:00;;;;;;;4.40;1.83;;;15.10;96.30;;;;;;5049435;28;20146;-72
2023/04/05 09:28:42;;;;;;;4.97;1.75;;;15.00;96.90;;;;;;5050595;28;20469;-72
2023/04/05 09:31:08;;;;;;;5.10;1.75;;;15.20;96.40;;;;;;5050035;28;20043;-72
2023/04/05 09:33:35;;;;;;;2.40;1.42;;;15.40;95.30;;;;;;5049571;28;20037;-71
2023/04/05 09:36:01;;;;;;;2.65;1.08;;;15.50;96.60;;;;;;5050526;28;20120;-72
2023/04/05 09:38:46;;;;;;;4.65;1.48;;;15.60;95.50;;;;;;5049263;28;20496;-73
2023/04/05 09:41:12;;;;;;;2.47;1.50;;;15.70;93.20;;;;;;5050950;28;20437;-72
2023/04/05 09:43:39;;;;;;;3.08;1.48;;;16.00;94.20;;;;;;5048770;28;20081;-73
2023/04/05 09:46:07;;;;;;;2.83;1.70;;;16.40;93.30;;;;;;5048671;28;20052;-72
2023/04/05 09:48:51;;;;;;;2.53;1.42;;;16.50;93.60;;;;;;5050760;28;20041;-72
2023/04/05 09:51:19;;;;;;;3.95;2.10;;;16.60;90.60;;;;;;5032238;28;20476;-72
2023/04/05 09:54:02;;;;;;;2.85;1.63;;;16.50;92.20;;;;;;5050803;28;20096;-72
2023/04/05 09:56:32;;;;;;;2.30;1.02;;;16.40;90.60;;;;;;5049343;28;20076;-72
2023/04/05 09:59:08;;;;;;;3.50;1.33;;;16.20;87.90;;;;;;5048984;28;20452;-72
2023/04/05 10:01:34;;;;;;;4.43;1.55;;;16.20;82.40;;;;;;5050514;28;20098;-73
2023/04/05 10:04:01;;;;;;;2.47;1.35;;;16.40;87.20;;;;;;5049249;28;20040;-72
2023/04/05 10:06:44;;;;;;;3.53;1.15;;;16.60;87.20;;;;;;5049978;28;20388;-73
2023/04/05 10:09:13;;;;;;;2.70;1.33;;;16.80;85.80;;;;;;5049118;28;20087;-73
2023/04/05 10:11:42;;;;;;;2.65;1.35;;;16.80;81.40;;;;;;5048528;28;20053;-73
2023/04/05 10:14:10;;;;;;;3.28;1.60;;;16.60;82.20;;;;;;5049148;28;20106;-72
2023/04/05 10:16:45;;;;;;;2.72;1.33;;;16.70;82.00;;;;;;5049001;28;20091;-73
2023/04/05 10:19:27;;;;;;;3.15;1.40;;;16.80;79.90;;;;;;5048524;28;20087;-73
2023/04/05 10:21:56;;;;;;;2.97;1.73;;;16.90;78.50;;;;;;5049028;28;20048;-73
2023/04/05 10:24:32;;;;;;;2.05;1.35;;;16.90;79.50;;;;;;5048774;28;20560;-72
2023/04/05 10:27:16;;;;;;;2.67;1.50;;;16.80;73.80;;;;;;5049808;28;20047;-72
2023/04/05 10:30:01;;;;;;;3.30;1.48;;;16.70;75.90;;;;;;5050413;28;20112;-73
2023/04/05 10:32:58;;;;;;;3.45;1.50;;;16.50;74.50;;;;;;5032507;28;20029;-73
2023/04/05 10:35:43;;;;;;;1.65;1.33;;;16.50;73.50;;;;;;5048857;28;20099;-74
2023/04/05 10:38:27;;;;;;;3.75;1.63;;;16.60;72.90;;;;;;5049421;28;20048;-72
2023/04/05 10:41:13;;;;;;;1.77;1.33;;;16.40;69.40;;;;;;5048397;28;20095;-73
2023/04/05 10:43:42;;;;;;;2.45;1.58;;;16.30;69.60;;;;;;5049337;28;20102;-72
2023/04/05 10:46:12;;;;;;;2.40;1.10;;;16.20;70.30;;;;;;5050220;28;20052;-73
2023/04/05 10:49:01;;;;;;;2.22;1.30;;;16.10;70.50;;;;;;5048263;28;20118;-72
2023/04/05 10:51:28;;;;;;;6.43;1.83;;;16.10;71.90;;;;;;5082349;28;20049;-72
2023/04/05 10:53:57;;;;;;;3.58;1.42;;;16.50;71.70;;;;;;5049463;28;20045;-71
2023/04/05 10:56:26;;;;;;;3.33;1.35;;;16.80;71.90;;;;;;5032080;28;20049;-72
2023/04/05 10:58:55;;;;;;;3.07;1.30;;;16.90;70.50;;;;;;5052305;28;20132;-70
2023/04/05 11:01:23;;;;;;;3.03;1.27;;;16.90;68.60;;;;;;5051349;28;20283;-71
2023/04/05 11:03:51;;;;;;;3.25;1.67;;;16.90;68.60;;;;;;5052248;28;20045;-72
2023/04/05 11:06:24;;;;;;;3.40;1.35;;;17.10;68.90;;;;;;5052240;28;20049;-72
2023/04/05 11:08:56;;;;;;;3.90;1.80;;;16.80;66.00;;;;;;5051623;28;20040;-72
2023/04/05 11:11:24;;;;;;;2.90;1.90;;;16.60;67.60;;;;;;5052431;28;20147;-72
2023/04/05 11:13:55;;;;;;;2.60;1.40;;;16.40;66.00;;;;;;5052735;28;20087;-72
2023/04/05 11:16:24;;;;;;;2.60;1.42;;;16.10;65.60;;;;;;5051306;28;20080;-72
2023/04/05 11:18:53;;;;;;;2.78;1.50;;;16.10;67.70;;;;;;5053404;28;20064;-72
2023/04/05 11:21:26;;;;;;;4.30;1.63;;;16.30;68.40;;;;;;5053374;28;20071;-72
2023/04/05 11:24:11;;;;;;;3.50;1.80;;;16.40;65.60;;;;;;5051161;28;20037;-72
2023/04/05 11:26:42;;;;;;;3.70;1.40;;;16.30;65.30;;;;;;5035301;28;20049;-72
2023/04/05 11:29:10;;;;;;;3.25;1.60;;;16.20;66.20;;;;;;5051503;28;20071;-73
2023/04/05 11:31:58;;;;;;;3.33;1.40;;;16.10;63.50;;;;;;5051861;28;20059;-72
2023/04/05 11:34:26;;;;;;;3.45;1.30;;;15.70;63.30;;;;;;5051857;28;20377;-72
2023/04/05 11:36:54;;;;;;;2.42;1.55;;;15.70;65.20;;;;;;5052299;28;20044;-73
2023/04/05 11:39:22;;;;;;;2.88;1.52;;;15.70;63.60;;;;;;5051726;28;20128;-73
2023/04/05 11:42:05;;;;;;;4.03;1.60;;;15.50;62.40;;;;;;5034975;28;20051;-71
2023/04/05 11:44:50;;;;;;;2.42;1.13;;;15.10;63.90;;;;;;5052331;28;20090;-72
2023/04/05 11:47:20;;;;;;;2.85;1.42;;;14.80;63.10;;;;;;5051745;28;20037;-72
2023/04/05 11:49:50;;;;;;;2.40;1.20;;;15.00;63.00;;;;;;5050982;28;20047;-72
2023/04/05 11:52:18;;;;;;;2.55;1.58;;;15.00;63.50;;;;;;5052937;28;20033;-71
2023/04/05 11:54:45;;;;;;;2.92;1.45;;;15.00;64.10;;;;;;5051558;28;20037;-72
2023/04/05 11:57:21;;;;;;;3.42;1.63;;;15.10;63.60;;;;;;5052078;28;20076;-71
2023/04/05 11:59:52;;;;;;;1.70;1.17;;;15.20;63.40;;;;;;5051288;28;20112;-72
2023/04/05 12:02:20;;;;;;;6.00;1.60;;;15.20;64.20;;;;;;5052743;28;20136;-72
2023/04/05 12:04:54;;;;;;;3.38;1.70;;;15.40;65.20;;;;;;5052042;28;20120;-72
2023/04/05 12:07:21;;;;;;;1.90;1.10;;;15.40;64.40;;;;;;5051183;28;20056;-72
2023/04/05 12:10:02;;;;;;;4.65;1.50;;;15.60;65.10;;;;;;5050494;28;20056;-72
2023/04/05 12:12:39;;;;;;;5.10;1.80;;;15.50;64.40;;;;;;5050393;28;20064;-73
2023/04/05 12:15:07;;;;;;;2.45;1.40;;;15.50;65.90;;;;;;5050977;28;20048;-72
2023/04/05 12:17:42;;;;;;;2.85;1.20;;;15.20;65.90;;;;;;5050721;28;20378;-72
2023/04/05 12:20:13;;;;;;;3.83;1.75;;;15.10;66.50;;;;;;5050866;28;20465;-72
2023/04/05 12:22:42;;;;;;;3.25;1.27;;;15.10;64.40;;;;;;5051083;28;20033;-71
2023/04/05 12:25:09;;;;;;;2.88;1.55;;;14.90;63.80;;;;;;5050070;28;20053;-72
2023/04/05 12:27:35;;;;;;;3.17;1.63;;;14.70;65.40;;;;;;5051903;28;20355;-71
2023/04/05 12:30:12;;;;;;;1.88;1.38;;;14.70;64.70;;;;;;5050697;28;20125;-72
2023/04/05 12:32:51;;;;;;;2.30;1.35;;;14.70;64.90;;;;;;5051416;28;20044;-72
2023/04/05 12:35:23;;;;;;;3.05;1.58;;;14.60;65.40;;;;;;5050416;28;20052;-72
2023/04/05 12:37:53;;;;;;;2.25;1.48;;;14.60;65.10;;;;;;5033661;28;20052;-72
2023/04/05 12:40:21;;;;;;;3.92;1.83;;;14.60;64.30;;;;;;5050215;28;20133;-73
2023/04/05 12:42:49;;;;;;;5.40;2.03;;;14.70;64.80;;;;;;5050640;28;20381;-73
2023/04/05 12:45:18;;;;;;;2.73;1.37;;;14.70;64.60;;;;;;5051695;28;20532;-72
2023/04/05 12:47:51;;;;;;;2.85;1.65;;;14.70;64.60;;;;;;5051017;28;20055;-73
2023/04/05 12:50:18;;;;;;;3.80;1.58;;;14.70;63.90;;;;;;5051612;28;20047;-73
2023/04/05 12:53:03;;;;;;;4.00;1.73;;;14.60;64.90;;;;;;5049941;28;20033;-72
2023/04/05 12:55:29;;;;;;;4.13;2.08;;;14.80;65.20;;;;;;5051389;28;20505;-72
2023/04/05 12:58:03;;;;;;;4.47;1.92;;;14.60;65.00;;;;;;5050058;28;20045;-72
2023/04/05 13:00:31;;;;;;;3.50;1.85;;;14.30;64.70;;;;;;5051011;28;20419;-72